Time;durP1;ratioP1;P1;durP2;ratioP2;P2;SDS_P1;SDS_P2;PMS_P1;PMS_P2;Temp;Humidity;BMP_temperature;BMP_pressure;BME280_temperature;BME280_humidity;BME280_pressure;Samples;Min_cycle;Max_cycle;Signal;HPM_P1;HPM_P2
2022/07/17 00:00:26;;;;;;;;;;;;;;;27.93;41.17;99798.22;2077533;28;19936;-63
2022/07/17 00:01:26;;;;;;;;;;;;;;;27.94;41.25;99797.13;2071706;28;19909;-64
2022/07/17 00:02:27;;;;;;;;;;;;;;;27.94;41.01;99804.59;2066147;28;19924;-64
2022/07/17 00:03:27;;;;;;;;;;;;;;;27.94;41.19;99801.81;2070759;28;19944;-64
2022/07/17 00:04:28;;;;;;;;;;;;;;;27.92;41.32;99802.03;2066617;28;19961;-64
2022/07/17 00:05:28;;;;;;;;;;;;;;;27.93;41.39;99802.91;2070106;28;20300;-63
2022/07/17 00:06:28;;;;;;;;;;;;;;;27.93;41.10;99802.91;2071396;28;20364;-64
2022/07/17 00:07:29;;;;;;;;;;;;;;;27.94;41.32;99804.59;2072954;28;19913;-64
2022/07/17 00:08:31;;;;;;;;;;;;;;;27.93;41.11;99808.44;2072272;28;19923;-63
2022/07/17 00:09:32;;;;;;;;;;;;;;;27.93;41.22;99805.69;2069823;28;19916;-64
2022/07/17 00:10:32;;;;;;;;;;;;;;;27.92;41.13;99801.19;2072239;28;19960;-64
2022/07/17 00:11:33;;;;;;;;;;;;;;;27.93;41.15;99811.22;2071750;28;19913;-64
2022/07/17 00:12:33;;;;;;;;;;;;;;;27.92;41.37;99803.97;2070989;28;20291;-64
2022/07/17 00:13:33;;;;;;;;;;;;;;;27.92;41.27;99807.56;2071413;28;20004;-64
2022/07/17 00:14:34;;;;;;;;;;;;;;;27.92;41.32;99801.19;2064704;28;20462;-64
2022/07/17 00:15:34;;;;;;;;;;;;;;;27.91;41.26;99808.66;2067751;28;20469;-64
2022/07/17 00:16:35;;;;;;;;;;;;;;;27.92;41.12;99807.56;2067511;28;19917;-64
2022/07/17 00:17:35;;;;;;;;;;;;;;;27.92;41.37;99801.19;2066827;28;19917;-64
2022/07/17 00:18:35;;;;;;;;;;;;;;;27.92;41.34;99807.56;2067880;28;20239;-64
2022/07/17 00:19:36;;;;;;;;;;;;;;;27.92;41.41;99803.97;2072459;28;19928;-63
2022/07/17 00:20:36;;;;;;;;;;;;;;;27.92;41.25;99810.34;2071423;28;19970;-64
2022/07/17 00:21:36;;;;;;;;;;;;;;;27.91;41.31;99808.66;2070367;28;19913;-64
2022/07/17 00:22:37;;;;;;;;;;;;;;;27.92;41.15;99801.19;2070463;28;19913;-64
2022/07/17 00:23:37;;;;;;;;;;;;;;;27.91;41.45;99805.88;2066809;28;19921;-63
2022/07/17 00:24:37;;;;;;;;;;;;;;;27.92;41.18;99801.19;2074014;28;19921;-64
2022/07/17 00:25:38;;;;;;;;;;;;;;;27.92;41.18;99803.97;2072941;28;20627;-64
2022/07/17 00:26:39;;;;;;;;;;;;;;;27.92;41.41;99801.19;2069110;28;20349;-64
2022/07/17 00:27:39;;;;;;;;;;;;;;;27.91;41.16;99800.34;2065526;28;20271;-63
2022/07/17 00:28:40;;;;;;;;;;;;;;;27.92;41.19;99798.41;2066401;28;20076;-64
2022/07/17 00:29:40;;;;;;;;;;;;;;;27.91;41.20;99800.34;2071263;28;19916;-64
2022/07/17 00:30:41;;;;;;;;;;;;;;;27.90;41.35;99798.63;2069706;28;19948;-64
2022/07/17 00:31:41;;;;;;;;;;;;;;;27.90;41.26;99786.69;2073118;28;19917;-64
2022/07/17 00:32:42;;;;;;;;;;;;;;;27.90;41.38;99793.09;2073296;28;19949;-64
2022/07/17 00:33:42;;;;;;;;;;;;;;;27.91;41.20;99796.72;2072217;28;19917;-63
2022/07/17 00:34:42;;;;;;;;;;;;;;;27.90;41.27;99790.31;2068497;28;19917;-64
2022/07/17 00:35:43;;;;;;;;;;;;;;;27.90;41.47;99787.53;2064949;28;19920;-64
2022/07/17 00:36:43;;;;;;;;;;;;;;;27.91;41.30;99793.97;2073408;28;19917;-64
2022/07/17 00:37:45;;;;;;;;;;;;;;;27.90;41.44;99795.00;2066086;28;19928;-64
2022/07/17 00:38:45;;;;;;;;;;;;;;;27.89;41.49;99787.78;2070039;28;19975;-64
2022/07/17 00:39:46;;;;;;;;;;;;;;;27.89;41.41;99788.63;2071459;28;19916;-64
2022/07/17 00:40:46;;;;;;;;;;;;;;;27.88;41.46;99783.28;2070907;28;19913;-64
2022/07/17 00:41:46;;;;;;;;;;;;;;;27.88;41.29;99788.81;2064836;28;19924;-64
2022/07/17 00:42:47;;;;;;;;;;;;;;;27.89;41.40;99790.53;2072219;28;19917;-64
2022/07/17 00:43:47;;;;;;;;;;;;;;;27.88;41.34;99788.81;2065526;28;19913;-64
2022/07/17 00:44:47;;;;;;;;;;;;;;;27.88;41.35;99798.00;2071031;28;20368;-64
2022/07/17 00:45:57;;;;;;;;;;;;;;;27.87;41.26;99787.13;2070993;28;20023;-64
2022/07/17 00:46:57;;;;;;;;;;;;;;;27.87;41.33;99787.13;2070875;28;21035;-64
2022/07/17 00:48:00;;;;;;;;;;;;;;;27.87;41.34;99789.91;2071427;28;19979;-63
2022/07/17 00:49:01;;;;;;;;;;;;;;;27.86;41.50;99785.44;2071524;28;20007;-64
2022/07/17 00:50:02;;;;;;;;;;;;;;;27.86;41.23;99791.00;2066355;28;19922;-64
2022/07/17 00:51:02;;;;;;;;;;;;;;;27.85;41.35;99789.25;2068700;28;20449;-64
2022/07/17 00:52:03;;;;;;;;;;;;;;;27.85;41.30;99786.50;2067175;28;19991;-64
2022/07/17 00:53:04;;;;;;;;;;;;;;;27.85;41.30;99790.09;2067255;28;20016;-64
2022/07/17 00:54:05;;;;;;;;;;;;;;;27.85;41.31;99794.81;2072255;28;19929;-64
2022/07/17 00:55:06;;;;;;;;;;;;;;;27.85;41.07;99786.50;2066799;28;20588;-64
2022/07/17 00:56:06;;;;;;;;;;;;;;;27.85;41.21;99789.25;2073896;28;19918;-64
2022/07/17 00:57:08;;;;;;;;;;;;;;;27.86;41.19;99791.00;2064738;28;19924;-64
2022/07/17 00:58:09;;;;;;;;;;;;;;;27.86;41.14;99791.00;2072067;28;20007;-65
2022/07/17 00:59:11;;;;;;;;;;;;;;;27.86;41.27;99791.00;2068294;28;19924;-64
2022/07/17 01:00:12;;;;;;;;;;;;;;;27.86;41.01;99785.44;2068312;28;20035;-64
2022/07/17 01:01:12;;;;;;;;;;;;;;;27.85;41.15;99792.88;2066859;28;19917;-64
2022/07/17 01:02:13;;;;;;;;;;;;;;;27.86;41.18;99786.28;2072165;28;20315;-64
2022/07/17 01:03:14;;;;;;;;;;;;;;;27.86;41.21;99791.84;2072702;28;19989;-65
2022/07/17 01:04:15;;;;;;;;;;;;;;;27.86;41.08;99788.22;2069262;28;19917;-64
2022/07/17 01:05:15;;;;;;;;;;;;;;;27.87;41.14;99789.91;2070268;28;20460;-64
2022/07/17 01:06:15;;;;;;;;;;;;;;;27.86;41.01;99786.28;2069030;28;20011;-64
2022/07/17 01:07:16;;;;;;;;;;;;;;;27.86;40.98;99791.84;2068517;28;20020;-64
2022/07/17 01:08:17;;;;;;;;;;;;;;;27.86;41.33;99785.44;2069674;28;19956;-64
2022/07/17 01:09:17;;;;;;;;;;;;;;;27.86;41.00;99779.91;2067732;28;19948;-64
2022/07/17 01:10:18;;;;;;;;;;;;;;;27.85;41.14;99781.81;2072039;28;20291;-64
2022/07/17 01:11:19;;;;;;;;;;;;;;;27.86;41.13;99780.75;2064465;28;20451;-64
2022/07/17 01:12:20;;;;;;;;;;;;;;;27.85;41.08;99773.50;2068229;28;20336;-64
2022/07/17 01:13:20;;;;;;;;;;;;;;;27.87;41.05;99781.59;2069311;28;19927;-64
2022/07/17 01:14:21;;;;;;;;;;;;;;;27.86;41.15;99785.44;2068101;28;19941;-64
2022/07/17 01:15:23;;;;;;;;;;;;;;;27.86;41.17;99785.44;2071251;28;20019;-64
2022/07/17 01:16:24;;;;;;;;;;;;;;;27.85;41.17;99779.03;2073040;28;19905;-64
2022/07/17 01:17:24;;;;;;;;;;;;;;;27.85;41.30;99784.56;2070504;28;20583;-64
2022/07/17 01:18:24;;;;;;;;;;;;;;;27.85;41.16;99778.19;2069382;28;19919;-64
2022/07/17 01:19:25;;;;;;;;;;;;;;;27.84;41.13;99780.09;2064452;28;19917;-64
2022/07/17 01:20:25;;;;;;;;;;;;;;;27.85;41.34;99783.72;2073890;28;20270;-64
2022/07/17 01:21:25;;;;;;;;;;;;;;;27.84;41.22;99782.03;2074935;28;19913;-64
2022/07/17 01:22:25;;;;;;;;;;;;;;;27.84;41.43;99790.34;2063137;28;19917;-64
2022/07/17 01:23:26;;;;;;;;;;;;;;;27.83;41.24;99786.72;2070222;28;20594;-64
2022/07/17 01:24:26;;;;;;;;;;;;;;;27.83;41.21;99783.09;2073368;28;20745;-64
2022/07/17 01:25:26;;;;;;;;;;;;;;;27.82;41.32;99782.25;2065714;28;20111;-64
2022/07/17 01:26:26;;;;;;;;;;;;;;;27.82;41.15;99784.13;2068966;28;19917;-64
2022/07/17 01:27:27;;;;;;;;;;;;;;;27.82;41.40;99784.13;2063656;28;19971;-64
2022/07/17 01:28:27;;;;;;;;;;;;;;;27.83;41.16;99783.09;2067676;28;19924;-64
2022/07/17 01:29:27;;;;;;;;;;;;;;;27.82;41.21;99782.25;2063888;28;19917;-64
2022/07/17 01:30:28;;;;;;;;;;;;;;;27.81;41.24;99780.50;2063818;28;19968;-64
2022/07/17 01:31:28;;;;;;;;;;;;;;;27.80;41.36;99781.56;2069106;28;19921;-64
2022/07/17 01:32:36;;;;;;;;;;;;;;;27.82;41.25;99784.13;2071229;28;20374;-64
2022/07/17 01:33:36;;;;;;;;;;;;;;;27.82;41.13;99785.00;2070968;28;19943;-64
2022/07/17 01:34:36;;;;;;;;;;;;;;;27.82;41.11;99786.91;2070793;28;20502;-64
2022/07/17 01:35:37;;;;;;;;;;;;;;;27.82;41.10;99784.13;2064349;28;19980;-64
2022/07/17 01:36:37;;;;;;;;;;;;;;;27.82;41.26;99786.91;2064744;28;19959;-64
2022/07/17 01:37:38;;;;;;;;;;;;;;;27.82;41.16;99784.13;2064984;28;20100;-64
2022/07/17 01:38:38;;;;;;;;;;;;;;;27.80;41.26;99787.94;2063881;28;20482;-64
2022/07/17 01:39:54;;;;;;;;;;;;;;;27.80;41.21;99787.94;2066182;28;20347;-64
2022/07/17 01:40:54;;;;;;;;;;;;;;;27.80;41.25;99776.88;2065147;28;20428;-64
2022/07/17 01:41:55;;;;;;;;;;;;;;;27.80;41.11;99782.41;2065502;28;20153;-64
2022/07/17 01:42:55;;;;;;;;;;;;;;;27.82;41.38;99784.13;2064797;28;19917;-64
2022/07/17 01:43:56;;;;;;;;;;;;;;;27.80;41.21;99782.41;2063793;28;19913;-64
2022/07/17 01:44:56;;;;;;;;;;;;;;;27.79;41.11;99775.19;2066908;28;19957;-64
2022/07/17 01:45:57;;;;;;;;;;;;;;;27.80;41.17;99785.19;2066166;28;20590;-64
2022/07/17 01:46:57;;;;;;;;;;;;;;;27.82;41.36;99784.13;2070477;28;19913;-64
2022/07/17 01:47:57;;;;;;;;;;;;;;;27.80;41.23;99787.94;2069681;28;19955;-64
2022/07/17 01:48:57;;;;;;;;;;;;;;;27.79;41.38;99791.78;2064416;28;19972;-64
2022/07/17 01:49:58;;;;;;;;;;;;;;;27.80;41.07;99787.94;2065749;28;19924;-64
2022/07/17 01:50:58;;;;;;;;;;;;;;;27.79;41.12;99789.03;2066441;28;19923;-65
2022/07/17 01:51:59;;;;;;;;;;;;;;;27.80;41.22;99792.63;2065012;28;19924;-65
2022/07/17 01:53:00;;;;;;;;;;;;;;;27.79;41.16;99791.78;2069252;28;19967;-64
2022/07/17 01:54:00;;;;;;;;;;;;;;;27.80;41.15;99792.63;2071844;28;19917;-64
2022/07/17 01:55:00;;;;;;;;;;;;;;;27.79;41.16;99791.78;2070978;28;19920;-64
2022/07/17 01:56:01;;;;;;;;;;;;;;;27.78;41.16;99790.09;2071687;28;19917;-64
2022/07/17 01:57:01;;;;;;;;;;;;;;;27.79;41.28;99794.56;2067906;28;19956;-64
2022/07/17 01:58:01;;;;;;;;;;;;;;;27.79;41.24;99789.03;2070163;28;20619;-64
2022/07/17 01:59:03;;;;;;;;;;;;;;;27.79;41.12;99790.94;2071861;28;19913;-64
2022/07/17 02:00:05;;;;;;;;;;;;;;;27.78;41.01;99790.09;2069776;28;19920;-64
2022/07/17 02:01:05;;;;;;;;;;;;;;;27.79;41.12;99790.94;2069391;28;19917;-64
2022/07/17 02:02:06;;;;;;;;;;;;;;;27.78;41.26;99786.47;2066374;28;19916;-65
2022/07/17 02:03:07;;;;;;;;;;;;;;;27.78;41.15;99787.34;2065428;28;19918;-64
2022/07/17 02:04:07;;;;;;;;;;;;;;;27.79;41.14;99789.03;2069624;28;19920;-64
2022/07/17 02:05:07;;;;;;;;;;;;;;;27.79;41.22;99786.25;2068632;28;20339;-64
2022/07/17 02:06:08;;;;;;;;;;;;;;;27.78;41.21;99781.81;2069763;28;19917;-65
2022/07/17 02:07:09;;;;;;;;;;;;;;;27.80;41.24;99792.63;2070946;28;20012;-65
2022/07/17 02:08:09;;;;;;;;;;;;;;;27.78;41.41;99779.03;2068501;28;19971;-64
2022/07/17 02:09:10;;;;;;;;;;;;;;;27.79;41.12;99791.78;2071557;28;19913;-64
2022/07/17 02:10:13;;;;;;;;;;;;;;;27.79;41.16;99789.03;2068603;28;19925;-64
2022/07/17 02:11:14;;;;;;;;;;;;;;;27.79;41.26;99791.78;2067127;28;19914;-64
2022/07/17 02:12:14;;;;;;;;;;;;;;;27.78;41.27;99792.88;2071359;28;20372;-65
2022/07/17 02:13:14;;;;;;;;;;;;;;;27.79;41.12;99791.78;2069530;28;20666;-64
2022/07/17 02:14:15;;;;;;;;;;;;;;;27.79;41.15;99793.72;2070017;28;19921;-64
2022/07/17 02:15:15;;;;;;;;;;;;;;;27.79;41.23;99793.72;2062081;28;19963;-65
2022/07/17 02:16:16;;;;;;;;;;;;;;;27.79;41.18;99790.94;2063630;28;19949;-64
2022/07/17 02:17:16;;;;;;;;;;;;;;;27.78;41.25;99790.09;2071515;28;20007;-64
2022/07/17 02:18:16;;;;;;;;;;;;;;;27.78;41.18;99789.22;2064773;28;20764;-64
2022/07/17 02:19:17;;;;;;;;;;;;;;;27.78;41.07;99789.22;2070015;28;21771;-64
2022/07/17 02:20:17;;;;;;;;;;;;;;;27.78;41.17;99789.22;2070397;28;20436;-64
2022/07/17 02:21:17;;;;;;;;;;;;;;;27.77;41.14;99791.16;2063989;28;19964;-64
2022/07/17 02:22:18;;;;;;;;;;;;;;;27.77;41.39;99788.38;2079146;28;19920;-64
2022/07/17 02:23:18;;;;;;;;;;;;;;;27.77;41.17;99787.53;2062804;28;19932;-64
2022/07/17 02:24:18;;;;;;;;;;;;;;;27.77;41.39;99793.94;2065446;28;19960;-64
2022/07/17 02:25:19;;;;;;;;;;;;;;;27.77;41.30;99796.69;2070742;28;20376;-64
2022/07/17 02:26:19;;;;;;;;;;;;;;;27.77;41.42;99793.06;2070767;28;19921;-64
2022/07/17 02:27:19;;;;;;;;;;;;;;;27.77;41.24;99788.38;2069380;28;19909;-64
2022/07/17 02:28:20;;;;;;;;;;;;;;;27.77;41.30;99787.53;2068914;28;19956;-64
2022/07/17 02:29:20;;;;;;;;;;;;;;;27.77;41.42;99790.31;2067813;28;19971;-64
2022/07/17 02:30:20;;;;;;;;;;;;;;;27.76;41.40;99792.22;2064640;28;19925;-64
2022/07/17 02:31:21;;;;;;;;;;;;;;;27.77;41.19;99785.63;2066513;28;19968;-64
2022/07/17 02:32:21;;;;;;;;;;;;;;;27.76;41.50;99786.69;2075738;28;19916;-64
2022/07/17 02:33:21;;;;;;;;;;;;;;;27.77;41.48;99787.53;2065871;28;20445;-65
2022/07/17 02:34:22;;;;;;;;;;;;;;;27.76;41.26;99785.84;2072102;28;20003;-64
2022/07/17 02:35:22;;;;;;;;;;;;;;;27.76;41.53;99783.94;2069685;28;19964;-64
2022/07/17 02:36:22;;;;;;;;;;;;;;;27.77;41.30;99785.63;2063338;28;19916;-64
2022/07/17 02:37:22;;;;;;;;;;;;;;;27.77;41.34;99787.53;2068618;28;19961;-64
2022/07/17 02:38:23;;;;;;;;;;;;;;;27.76;41.40;99792.22;2063847;28;19918;-64
2022/07/17 02:39:23;;;;;;;;;;;;;;;27.76;41.60;99786.69;2071290;28;19913;-64
2022/07/17 02:40:23;;;;;;;;;;;;;;;27.76;41.33;99786.69;2068894;28;19917;-64
2022/07/17 02:41:24;;;;;;;;;;;;;;;27.76;41.28;99789.47;2068268;28;20407;-64
2022/07/17 02:42:25;;;;;;;;;;;;;;;27.77;41.44;99787.53;2069056;28;20006;-64
2022/07/17 02:43:26;;;;;;;;;;;;;;;27.76;41.32;99785.84;2064552;28;19917;-64
2022/07/17 02:44:26;;;;;;;;;;;;;;;27.76;41.42;99785.84;2067852;28;19924;-64
2022/07/17 02:45:26;;;;;;;;;;;;;;;27.76;41.25;99792.22;2064896;28;19914;-64
2022/07/17 02:46:27;;;;;;;;;;;;;;;27.75;41.52;99790.50;2059830;28;20387;-64
2022/07/17 02:47:28;;;;;;;;;;;;;;;27.75;41.34;99781.34;2055057;28;19960;-63
2022/07/17 02:48:29;;;;;;;;;;;;;;;27.76;41.52;99791.38;2065882;28;19913;-63
2022/07/17 02:49:29;;;;;;;;;;;;;;;27.74;41.48;99794.38;2064079;28;19918;-63
2022/07/17 02:50:29;;;;;;;;;;;;;;;27.75;41.44;99789.66;2063498;28;19929;-63
2022/07/17 02:51:30;;;;;;;;;;;;;;;27.75;41.41;99784.13;2069736;28;19917;-63
2022/07/17 02:52:30;;;;;;;;;;;;;;;27.74;41.25;99787.97;2068948;28;19910;-63
2022/07/17 02:53:30;;;;;;;;;;;;;;;27.74;41.50;99788.81;2061386;28;20008;-64
2022/07/17 02:54:30;;;;;;;;;;;;;;;27.74;41.49;99786.06;2066765;28;20338;-63
2022/07/17 02:55:31;;;;;;;;;;;;;;;27.75;41.56;99789.66;2064074;28;19913;-63
2022/07/17 02:56:31;;;;;;;;;;;;;;;27.74;41.39;99788.81;2066795;28;20106;-63
2022/07/17 02:57:31;;;;;;;;;;;;;;;27.74;41.35;99787.97;2065578;28;20224;-63
2022/07/17 02:58:32;;;;;;;;;;;;;;;27.74;41.42;99788.81;2071784;28;20350;-63
2022/07/17 02:59:32;;;;;;;;;;;;;;;27.73;41.39;99792.66;2071697;28;19921;-63
2022/07/17 03:00:32;;;;;;;;;;;;;;;27.73;41.62;99787.13;2071529;28;19917;-63
2022/07/17 03:01:33;;;;;;;;;;;;;;;27.73;41.43;99787.13;2072596;28;19916;-63
2022/07/17 03:02:33;;;;;;;;;;;;;;;27.74;41.32;99783.28;2069738;28;20414;-64
2022/07/17 03:03:33;;;;;;;;;;;;;;;27.74;41.44;99788.81;2065733;28;20560;-63
2022/07/17 03:04:34;;;;;;;;;;;;;;;27.74;41.60;99788.81;2064303;28;19918;-63
2022/07/17 03:05:34;;;;;;;;;;;;;;;27.74;41.46;99782.44;2071909;28;19917;-63
2022/07/17 03:06:34;;;;;;;;;;;;;;;27.73;41.47;99778.81;2068022;28;20742;-64
2022/07/17 03:07:35;;;;;;;;;;;;;;;27.74;41.61;99777.75;2069925;28;19924;-63
2022/07/17 03:08:35;;;;;;;;;;;;;;;27.74;41.39;99786.06;2071072;28;19917;-63
2022/07/17 03:09:36;;;;;;;;;;;;;;;27.74;41.57;99782.44;2069241;28;20006;-64
2022/07/17 03:10:36;;;;;;;;;;;;;;;27.74;41.58;99787.97;2070994;28;19921;-64
2022/07/17 03:11:36;;;;;;;;;;;;;;;27.74;41.65;99782.44;2069204;28;19909;-64
2022/07/17 03:12:37;;;;;;;;;;;;;;;27.73;41.33;99786.25;2069541;28;19918;-64
2022/07/17 03:13:37;;;;;;;;;;;;;;;27.73;41.55;99787.13;2071839;28;20003;-64
2022/07/17 03:14:37;;;;;;;;;;;;;;;27.72;41.57;99781.81;2072744;28;19912;-64
2022/07/17 03:15:38;;;;;;;;;;;;;;;27.72;41.57;99782.63;2072183;28;19917;-64
2022/07/17 03:16:38;;;;;;;;;;;;;;;27.70;41.53;99782.00;2070520;28;19955;-63
2022/07/17 03:17:39;;;;;;;;;;;;;;;27.71;41.37;99778.19;2072607;28;19906;-64
2022/07/17 03:18:39;;;;;;;;;;;;;;;27.71;41.33;99778.19;2067308;28;19918;-64
2022/07/17 03:19:40;;;;;;;;;;;;;;;27.71;41.41;99777.34;2070791;28;19941;-63
2022/07/17 03:20:40;;;;;;;;;;;;;;;27.71;41.56;99774.56;2071572;28;19910;-64
2022/07/17 03:21:41;;;;;;;;;;;;;;;27.71;41.60;99778.19;2071904;28;20585;-63
2022/07/17 03:22:41;;;;;;;;;;;;;;;27.71;41.50;99774.56;2070620;28;19963;-64
2022/07/17 03:23:41;;;;;;;;;;;;;;;27.70;41.37;99776.47;2065134;28;19906;-64
2022/07/17 03:24:41;;;;;;;;;;;;;;;27.70;41.36;99781.16;2070488;28;19921;-63
2022/07/17 03:25:42;;;;;;;;;;;;;;;27.71;41.41;99780.09;2067460;28;19917;-63
2022/07/17 03:26:42;;;;;;;;;;;;;;;27.71;41.50;99775.41;2071508;28;19921;-63
2022/07/17 03:27:42;;;;;;;;;;;;;;;27.70;41.46;99775.63;2070349;28;19924;-64
2022/07/17 03:28:43;;;;;;;;;;;;;;;27.71;41.53;99778.19;2069169;28;19928;-64
2022/07/17 03:29:43;;;;;;;;;;;;;;;27.70;41.39;99776.47;2071898;28;20299;-64
2022/07/17 03:30:43;;;;;;;;;;;;;;;27.71;41.25;99778.19;2072082;28;19928;-64
2022/07/17 03:31:44;;;;;;;;;;;;;;;27.70;41.37;99776.47;2077308;28;20926;-63
2022/07/17 03:32:44;;;;;;;;;;;;;;;27.70;41.49;99782.00;2074899;28;20751;-64
2022/07/17 03:33:45;;;;;;;;;;;;;;;27.71;41.36;99777.34;2071963;28;20295;-64
2022/07/17 03:34:45;;;;;;;;;;;;;;;27.70;41.30;99779.22;2068870;28;20203;-64
2022/07/17 03:35:45;;;;;;;;;;;;;;;27.71;41.51;99782.88;2064464;28;20625;-64
2022/07/17 03:36:46;;;;;;;;;;;;;;;27.70;41.48;99782.00;2068146;28;19993;-64
2022/07/17 03:37:47;;;;;;;;;;;;;;;27.70;41.50;99787.53;2072424;28;19913;-64
2022/07/17 03:38:47;;;;;;;;;;;;;;;27.70;41.58;99782.00;2070544;28;19920;-64
2022/07/17 03:39:47;;;;;;;;;;;;;;;27.70;41.43;99781.16;2067380;28;19923;-64
2022/07/17 03:40:47;;;;;;;;;;;;;;;27.70;41.31;99782.00;2071413;28;20007;-63
2022/07/17 03:41:48;;;;;;;;;;;;;;;27.71;41.53;99782.88;2070488;28;19917;-64
2022/07/17 03:42:48;;;;;;;;;;;;;;;27.70;41.39;99787.53;2072251;28;19999;-64
2022/07/17 03:43:48;;;;;;;;;;;;;;;27.70;41.41;99787.53;2064049;28;20007;-63
2022/07/17 03:44:48;;;;;;;;;;;;;;;27.70;41.35;99782.00;2067024;28;20311;-64
2022/07/17 03:45:49;;;;;;;;;;;;;;;27.70;41.48;99782.00;2065197;28;20833;-63
2022/07/17 03:46:49;;;;;;;;;;;;;;;27.70;41.49;99787.53;2071180;28;19924;-64
2022/07/17 03:47:49;;;;;;;;;;;;;;;27.69;41.43;99785.84;2070718;28;19917;-63
2022/07/17 03:48:50;;;;;;;;;;;;;;;27.69;41.23;99780.31;2064550;28;19913;-63
2022/07/17 03:49:50;;;;;;;;;;;;;;;27.69;41.53;99785.84;2065859;28;20316;-63
2022/07/17 03:50:50;;;;;;;;;;;;;;;27.69;41.23;99779.47;2067778;28;20007;-64
2022/07/17 03:51:50;;;;;;;;;;;;;;;27.69;41.33;99791.38;2070783;28;20792;-63
2022/07/17 03:52:51;;;;;;;;;;;;;;;27.68;41.46;99775.81;2069099;28;19917;-64
2022/07/17 03:53:51;;;;;;;;;;;;;;;27.68;41.42;99792.44;2071234;28;19918;-64
2022/07/17 03:54:51;;;;;;;;;;;;;;;27.68;41.23;99786.91;2069550;28;19994;-64
2022/07/17 03:55:52;;;;;;;;;;;;;;;27.67;41.29;99779.66;2068741;28;19955;-63
2022/07/17 03:56:52;;;;;;;;;;;;;;;27.69;41.18;99790.53;2064105;28;19913;-63
2022/07/17 03:57:53;;;;;;;;;;;;;;;27.68;41.31;99792.44;2067222;28;19914;-64
2022/07/17 03:58:53;;;;;;;;;;;;;;;27.68;41.21;99792.44;2067385;28;19964;-64
2022/07/17 03:59:54;;;;;;;;;;;;;;;27.68;41.17;99789.66;2069719;28;19917;-64
2022/07/17 04:00:54;;;;;;;;;;;;;;;27.68;41.45;99792.44;2071646;28;19921;-63
2022/07/17 04:01:56;;;;;;;;;;;;;;;27.68;41.21;99791.59;2064868;28;19917;-64
2022/07/17 04:02:56;;;;;;;;;;;;;;;27.68;41.47;99795.19;2071156;28;20380;-63
2022/07/17 04:03:56;;;;;;;;;;;;;;;27.67;41.36;99793.50;2071693;28;20773;-63
2022/07/17 04:04:56;;;;;;;;;;;;;;;27.68;41.22;99799.91;2073103;28;20634;-65
2022/07/17 04:05:57;;;;;;;;;;;;;;;27.68;41.21;99795.19;2069434;28;20334;-64
2022/07/17 04:06:57;;;;;;;;;;;;;;;27.67;41.38;99793.50;2069635;28;19917;-64
2022/07/17 04:07:58;;;;;;;;;;;;;;;27.67;41.32;99799.06;2071438;28;20003;-64
2022/07/17 04:08:58;;;;;;;;;;;;;;;27.67;41.22;99793.50;2067128;28;19960;-64
2022/07/17 04:09:59;;;;;;;;;;;;;;;27.67;41.45;99795.44;2067105;28;19943;-64
2022/07/17 04:10:59;;;;;;;;;;;;;;;27.67;41.38;99804.59;2068371;28;19917;-64
2022/07/17 04:11:59;;;;;;;;;;;;;;;27.68;41.32;99806.28;2068449;28;19913;-64
2022/07/17 04:12:59;;;;;;;;;;;;;;;27.68;41.50;99799.91;2066189;28;19963;-64
2022/07/17 04:14:00;;;;;;;;;;;;;;;27.67;41.28;99803.75;2072676;28;19921;-64
2022/07/17 04:15:00;;;;;;;;;;;;;;;27.67;41.28;99798.19;2070028;28;19924;-64
2022/07/17 04:16:01;;;;;;;;;;;;;;;27.67;41.42;99799.06;2072493;28;19924;-64
2022/07/17 04:17:01;;;;;;;;;;;;;;;27.66;41.48;99797.38;2067897;28;19918;-64
2022/07/17 04:18:01;;;;;;;;;;;;;;;27.67;41.16;99798.19;2065064;28;19928;-64
2022/07/17 04:19:02;;;;;;;;;;;;;;;27.67;41.51;99798.19;2069766;28;19917;-64
2022/07/17 04:20:03;;;;;;;;;;;;;;;27.66;41.26;99800.13;2071228;28;19917;-64
2022/07/17 04:21:04;;;;;;;;;;;;;;;27.65;41.40;99790.09;2072109;28;20440;-64
2022/07/17 04:22:04;;;;;;;;;;;;;;;27.66;41.44;99790.94;2069646;28;19967;-64
2022/07/17 04:23:05;;;;;;;;;;;;;;;27.66;41.24;99797.38;2069384;28;19924;-63
2022/07/17 04:24:05;;;;;;;;;;;;;;;27.66;41.36;99797.38;2069262;28;19971;-64
2022/07/17 04:25:05;;;;;;;;;;;;;;;27.66;41.23;99790.94;2073045;28;19917;-63
2022/07/17 04:26:06;;;;;;;;;;;;;;;27.66;41.36;99791.81;2074873;28;19913;-63
2022/07/17 04:27:07;;;;;;;;;;;;;;;27.66;41.24;99802.91;2066650;28;19968;-64
2022/07/17 04:28:08;;;;;;;;;;;;;;;27.64;41.53;99796.72;2064009;28;20024;-63
2022/07/17 04:29:08;;;;;;;;;;;;;;;27.66;41.62;99799.25;2063790;28;20510;-63
2022/07/17 04:30:09;;;;;;;;;;;;;;;27.66;41.47;99793.72;2072249;28;19932;-63
2022/07/17 04:31:09;;;;;;;;;;;;;;;27.66;41.37;99796.47;2072456;28;19933;-63
2022/07/17 04:32:09;;;;;;;;;;;;;;;27.66;41.54;99802.91;2074213;28;19987;-63
2022/07/17 04:33:09;;;;;;;;;;;;;;;27.66;41.51;99799.25;2073614;28;19917;-63
2022/07/17 04:34:10;;;;;;;;;;;;;;;27.65;41.52;99801.19;2072059;28;20366;-63
2022/07/17 04:35:10;;;;;;;;;;;;;;;27.64;41.53;99801.41;2066375;28;19913;-63
2022/07/17 04:36:10;;;;;;;;;;;;;;;27.65;41.32;99800.34;2066987;28;19913;-63
2022/07/17 04:37:11;;;;;;;;;;;;;;;27.64;41.41;99793.09;2071180;28;20320;-63
2022/07/17 04:38:11;;;;;;;;;;;;;;;27.64;41.41;99793.94;2065735;28;20391;-64
2022/07/17 04:39:11;;;;;;;;;;;;;;;27.64;41.31;99802.25;2070843;28;20024;-63
2022/07/17 04:40:11;;;;;;;;;;;;;;;27.64;41.21;99805.03;2070136;28;19932;-64
2022/07/17 04:41:12;;;;;;;;;;;;;;;27.64;41.31;99802.25;2065268;28;19913;-64
2022/07/17 04:42:12;;;;;;;;;;;;;;;27.64;41.12;99801.41;2071217;28;20402;-63
2022/07/17 04:43:12;;;;;;;;;;;;;;;27.65;41.33;99803.94;2064825;28;20190;-64
2022/07/17 04:44:13;;;;;;;;;;;;;;;27.64;41.18;99805.03;2065130;28;19914;-64
2022/07/17 04:45:13;;;;;;;;;;;;;;;27.65;41.12;99811.41;2064925;28;19917;-63
2022/07/17 04:46:14;;;;;;;;;;;;;;;27.64;41.26;99810.56;2069631;28;19991;-63
2022/07/17 04:47:14;;;;;;;;;;;;;;;27.64;41.31;99804.19;2070873;28;19952;-64
2022/07/17 04:48:14;;;;;;;;;;;;;;;27.64;41.24;99810.56;2063893;28;19921;-64
2022/07/17 04:49:15;;;;;;;;;;;;;;;27.62;41.53;99804.38;2066545;28;20468;-61
2022/07/17 04:50:15;;;;;;;;;;;;;;;27.64;41.46;99813.34;2060714;28;19921;-62
2022/07/17 04:51:15;;;;;;;;;;;;;;;27.63;41.58;99803.31;2064040;28;19934;-62
2022/07/17 04:52:16;;;;;;;;;;;;;;;27.62;41.61;99809.91;2065121;28;19913;-62
2022/07/17 04:53:16;;;;;;;;;;;;;;;27.63;41.58;99806.06;2065823;28;20273;-63
2022/07/17 04:54:16;;;;;;;;;;;;;;;27.64;41.47;99815.25;2069712;28;20419;-63
2022/07/17 04:55:17;;;;;;;;;;;;;;;27.62;41.22;99806.31;2070512;28;19944;-63
2022/07/17 04:56:17;;;;;;;;;;;;;;;27.62;41.40;99812.69;2063480;28;19921;-63
2022/07/17 04:57:18;;;;;;;;;;;;;;;27.62;41.03;99812.69;2066738;28;19988;-62
2022/07/17 04:58:18;;;;;;;;;;;;;;;27.62;40.97;99812.69;2068432;28;20054;-61
2022/07/17 04:59:19;;;;;;;;;;;;;;;27.62;40.86;99812.69;2066238;28;19905;-62
2022/07/17 05:00:19;;;;;;;;;;;;;;;27.63;40.56;99808.84;2062499;28;19917;-61
2022/07/17 05:01:20;;;;;;;;;;;;;;;27.63;40.50;99808.00;2067157;28;20059;-61
2022/07/17 05:02:20;;;;;;;;;;;;;;;27.63;40.47;99814.38;2070128;28;19913;-62
2022/07/17 05:03:20;;;;;;;;;;;;;;;27.64;40.63;99810.56;2071007;28;19954;-61
2022/07/17 05:04:21;;;;;;;;;;;;;;;27.64;40.69;99815.25;2067120;28;19913;-62
2022/07/17 05:05:21;;;;;;;;;;;;;;;27.64;40.46;99815.25;2066275;28;19909;-61
2022/07/17 05:06:21;;;;;;;;;;;;;;;27.62;40.35;99807.16;2064047;28;20000;-61
2022/07/17 05:07:22;;;;;;;;;;;;;;;27.63;40.62;99817.16;2068151;28;19928;-61
2022/07/17 05:08:22;;;;;;;;;;;;;;;27.62;40.41;99807.16;2067414;28;19921;-61
2022/07/17 05:09:22;;;;;;;;;;;;;;;27.62;40.27;99812.69;2062869;28;19921;-61
2022/07/17 05:10:23;;;;;;;;;;;;;;;27.62;40.29;99811.84;2067280;28;20016;-61
2022/07/17 05:11:23;;;;;;;;;;;;;;;27.62;40.25;99818.22;2064854;28;19925;-60
2022/07/17 05:12:23;;;;;;;;;;;;;;;27.63;40.36;99813.53;2067080;28;20241;-62
2022/07/17 05:13:23;;;;;;;;;;;;;;;27.61;40.34;99816.53;2068702;28;20375;-61
2022/07/17 05:14:24;;;;;;;;;;;;;;;27.61;39.97;99811.00;2068760;28;20755;-61
2022/07/17 05:15:24;;;;;;;;;;;;;;;27.61;40.13;99811.00;2066734;28;20395;-61